sensor_id;sensor_type;location;lat;lon;timestamp;temperature;humidity
54158;DHT22;40065;49.894;10.358;2023-03-08T00:02:26;6.00;99.90
54158;DHT22;40065;49.894;10.358;2023-03-08T00:07:28;5.80;99.90
54158;DHT22;40065;49.894;10.358;2023-03-08T00:12:30;6.00;99.90
54158;DHT22;40065;49.894;10.358;2023-03-08T00:17:35;5.80;99.90
54158;DHT22;40065;49.894;10.358;2023-03-08T00:22:37;5.90;99.90
54158;DHT22;40065;49.894;10.358;2023-03-08T00:27:39;5.90;99.70
54158;DHT22;40065;49.894;10.358;2023-03-08T00:32:41;5.90;99.50
54158;DHT22;40065;49.894;10.358;2023-03-08T00:37:43;6.00;99.40
54158;DHT22;40065;49.894;10.358;2023-03-08T00:42:45;6.10;98.90
54158;DHT22;40065;49.894;10.358;2023-03-08T00:47:47;6.20;99.00
54158;DHT22;40065;49.894;10.358;2023-03-08T00:52:48;6.20;98.60
54158;DHT22;40065;49.894;10.358;2023-03-08T00:57:50;6.20;98.40
54158;DHT22;40065;49.894;10.358;2023-03-08T01:02:53;6.20;98.70
54158;DHT22;40065;49.894;10.358;2023-03-08T01:07:55;6.10;98.70
54158;DHT22;40065;49.894;10.358;2023-03-08T01:12:57;6.00;98.70
54158;DHT22;40065;49.894;10.358;2023-03-08T01:17:58;6.10;98.60
54158;DHT22;40065;49.894;10.358;2023-03-08T01:23:00;6.20;98.40
54158;DHT22;40065;49.894;10.358;2023-03-08T01:28:02;6.20;98.30
54158;DHT22;40065;49.894;10.358;2023-03-08T01:33:04;6.20;98.00
54158;DHT22;40065;49.894;10.358;2023-03-08T01:38:06;6.10;98.50
54158;DHT22;40065;49.894;10.358;2023-03-08T01:43:26;6.10;98.30
54158;DHT22;40065;49.894;10.358;2023-03-08T01:48:31;6.20;98.30
54158;DHT22;40065;49.894;10.358;2023-03-08T01:53:40;6.10;98.50
54158;DHT22;40065;49.894;10.358;2023-03-08T01:58:44;6.00;98.50
54158;DHT22;40065;49.894;10.358;2023-03-08T02:03:47;5.90;98.20
54158;DHT22;40065;49.894;10.358;2023-03-08T02:08:52;6.00;98.20
54158;DHT22;40065;49.894;10.358;2023-03-08T02:13:54;5.90;98.20
54158;DHT22;40065;49.894;10.358;2023-03-08T02:19:02;5.90;98.20
54158;DHT22;40065;49.894;10.358;2023-03-08T02:24:22;5.90;98.30
54158;DHT22;40065;49.894;10.358;2023-03-08T02:29:25;5.80;98.30
54158;DHT22;40065;49.894;10.358;2023-03-08T02:34:28;5.90;98.10
54158;DHT22;40065;49.894;10.358;2023-03-08T02:39:31;5.80;98.20
54158;DHT22;40065;49.894;10.358;2023-03-08T02:44:33;5.80;98.30
54158;DHT22;40065;49.894;10.358;2023-03-08T02:49:34;5.70;98.10
54158;DHT22;40065;49.894;10.358;2023-03-08T02:54:36;5.80;98.40
54158;DHT22;40065;49.894;10.358;2023-03-08T02:59:38;5.80;98.00
54158;DHT22;40065;49.894;10.358;2023-03-08T03:04:40;5.90;98.00
54158;DHT22;40065;49.894;10.358;2023-03-08T03:09:42;5.80;98.00
54158;DHT22;40065;49.894;10.358;2023-03-08T03:14:44;5.80;98.10
54158;DHT22;40065;49.894;10.358;2023-03-08T03:19:46;5.80;98.20
54158;DHT22;40065;49.894;10.358;2023-03-08T03:24:51;5.80;98.10
54158;DHT22;40065;49.894;10.358;2023-03-08T03:29:53;5.70;98.50
54158;DHT22;40065;49.894;10.358;2023-03-08T03:34:55;5.90;98.00
54158;DHT22;40065;49.894;10.358;2023-03-08T03:39:58;5.70;98.20
54158;DHT22;40065;49.894;10.358;2023-03-08T03:45:00;5.60;98.40
54158;DHT22;40065;49.894;10.358;2023-03-08T03:50:02;5.70;98.30
54158;DHT22;40065;49.894;10.358;2023-03-08T03:55:12;5.60;98.30
54158;DHT22;40065;49.894;10.358;2023-03-08T04:00:15;5.50;98.30
54158;DHT22;40065;49.894;10.358;2023-03-08T04:05:24;5.50;98.60
54158;DHT22;40065;49.894;10.358;2023-03-08T04:10:28;5.50;98.40
54158;DHT22;40065;49.894;10.358;2023-03-08T04:15:31;5.50;98.70
54158;DHT22;40065;49.894;10.358;2023-03-08T04:20:36;5.40;98.80
54158;DHT22;40065;49.894;10.358;2023-03-08T04:25:38;5.20;98.60
54158;DHT22;40065;49.894;10.358;2023-03-08T04:30:43;5.20;98.70
54158;DHT22;40065;49.894;10.358;2023-03-08T04:35:48;5.20;98.50
54158;DHT22;40065;49.894;10.358;2023-03-08T04:40:52;5.30;98.30
54158;DHT22;40065;49.894;10.358;2023-03-08T04:46:16;5.30;98.40
54158;DHT22;40065;49.894;10.358;2023-03-08T04:51:19;5.20;98.50
54158;DHT22;40065;49.894;10.358;2023-03-08T04:56:21;5.20;98.40
54158;DHT22;40065;49.894;10.358;2023-03-08T05:01:24;5.20;98.20
54158;DHT22;40065;49.894;10.358;2023-03-08T05:06:27;5.40;98.00
54158;DHT22;40065;49.894;10.358;2023-03-08T05:11:31;5.40;97.90
54158;DHT22;40065;49.894;10.358;2023-03-08T05:16:33;5.20;97.90
54158;DHT22;40065;49.894;10.358;2023-03-08T05:21:36;5.10;97.90
54158;DHT22;40065;49.894;10.358;2023-03-08T05:26:38;5.20;97.90
54158;DHT22;40065;49.894;10.358;2023-03-08T05:31:42;5.00;98.10
54158;DHT22;40065;49.894;10.358;2023-03-08T05:36:47;5.10;98.10
54158;DHT22;40065;49.894;10.358;2023-03-08T05:41:49;5.00;98.30
54158;DHT22;40065;49.894;10.358;2023-03-08T05:46:57;5.10;97.90
54158;DHT22;40065;49.894;10.358;2023-03-08T05:52:01;5.00;98.20
54158;DHT22;40065;49.894;10.358;2023-03-08T05:57:03;5.20;97.80
54158;DHT22;40065;49.894;10.358;2023-03-08T06:02:05;5.10;98.00
54158;DHT22;40065;49.894;10.358;2023-03-08T06:07:12;5.10;98.10
54158;DHT22;40065;49.894;10.358;2023-03-08T06:12:20;5.10;98.30
54158;DHT22;40065;49.894;10.358;2023-03-08T06:17:26;5.00;98.90
54158;DHT22;40065;49.894;10.358;2023-03-08T06:22:29;5.00;98.90
54158;DHT22;40065;49.894;10.358;2023-03-08T06:27:33;5.00;98.90
54158;DHT22;40065;49.894;10.358;2023-03-08T06:32:39;5.10;98.70
54158;DHT22;40065;49.894;10.358;2023-03-08T06:37:42;5.20;98.70
54158;DHT22;40065;49.894;10.358;2023-03-08T06:42:44;5.10;98.90
54158;DHT22;40065;49.894;10.358;2023-03-08T06:47:48;5.10;98.80
54158;DHT22;40065;49.894;10.358;2023-03-08T06:52:50;5.00;98.90
54158;DHT22;40065;49.894;10.358;2023-03-08T06:57:59;4.90;98.90
54158;DHT22;40065;49.894;10.358;2023-03-08T07:03:01;4.90;99.90
54158;DHT22;40065;49.894;10.358;2023-03-08T07:08:04;4.70;99.90
54158;DHT22;40065;49.894;10.358;2023-03-08T07:13:07;4.80;99.90
54158;DHT22;40065;49.894;10.358;2023-03-08T07:18:09;4.70;99.90
54158;DHT22;40065;49.894;10.358;2023-03-08T07:23:11;4.70;99.90
54158;DHT22;40065;49.894;10.358;2023-03-08T07:28:25;4.70;99.90
54158;DHT22;40065;49.894;10.358;2023-03-08T07:33:37;4.60;99.90
54158;DHT22;40065;49.894;10.358;2023-03-08T07:38:39;4.50;99.90
54158;DHT22;40065;49.894;10.358;2023-03-08T07:43:40;4.50;99.90
54158;DHT22;40065;49.894;10.358;2023-03-08T07:48:53;4.60;99.90
54158;DHT22;40065;49.894;10.358;2023-03-08T07:53:56;4.40;99.90
54158;DHT22;40065;49.894;10.358;2023-03-08T07:58:57;4.20;99.90
54158;DHT22;40065;49.894;10.358;2023-03-08T08:03:59;4.20;99.90
54158;DHT22;40065;49.894;10.358;2023-03-08T08:09:01;4.30;99.90
54158;DHT22;40065;49.894;10.358;2023-03-08T08:14:04;4.30;99.90
54158;DHT22;40065;49.894;10.358;2023-03-08T08:19:09;4.20;99.90
54158;DHT22;40065;49.894;10.358;2023-03-08T08:24:11;4.20;99.90
54158;DHT22;40065;49.894;10.358;2023-03-08T08:29:13;3.90;99.90
54158;DHT22;40065;49.894;10.358;2023-03-08T08:34:15;3.70;99.90
54158;DHT22;40065;49.894;10.358;2023-03-08T08:39:17;3.80;99.90
54158;DHT22;40065;49.894;10.358;2023-03-08T08:44:18;3.70;99.90
54158;DHT22;40065;49.894;10.358;2023-03-08T08:49:20;3.60;99.90
54158;DHT22;40065;49.894;10.358;2023-03-08T08:54:22;3.40;99.90
54158;DHT22;40065;49.894;10.358;2023-03-08T08:59:24;3.60;99.90
54158;DHT22;40065;49.894;10.358;2023-03-08T09:04:26;3.70;99.90
54158;DHT22;40065;49.894;10.358;2023-03-08T09:09:28;3.00;99.90
54158;DHT22;40065;49.894;10.358;2023-03-08T09:14:30;3.10;99.90
54158;DHT22;40065;49.894;10.358;2023-03-08T09:19:32;3.10;99.90
54158;DHT22;40065;49.894;10.358;2023-03-08T09:24:33;3.00;99.90
54158;DHT22;40065;49.894;10.358;2023-03-08T09:29:35;2.80;99.90
54158;DHT22;40065;49.894;10.358;2023-03-08T09:34:38;2.70;99.90
54158;DHT22;40065;49.894;10.358;2023-03-08T09:39:41;2.70;99.90
54158;DHT22;40065;49.894;10.358;2023-03-08T09:55:21;2.90;99.90
54158;DHT22;40065;49.894;10.358;2023-03-08T10:00:35;3.00;99.90
54158;DHT22;40065;49.894;10.358;2023-03-08T10:11:01;2.80;99.90
54158;DHT22;40065;49.894;10.358;2023-03-08T10:16:38;2.90;99.90
54158;DHT22;40065;49.894;10.358;2023-03-08T10:21:43;3.10;99.90
54158;DHT22;40065;49.894;10.358;2023-03-08T10:26:45;3.10;99.90
54158;DHT22;40065;49.894;10.358;2023-03-08T10:31:47;3.20;99.90
54158;DHT22;40065;49.894;10.358;2023-03-08T10:37:04;3.40;99.90
54158;DHT22;40065;49.894;10.358;2023-03-08T10:42:14;3.40;99.90
54158;DHT22;40065;49.894;10.358;2023-03-08T10:52:25;3.60;99.90
54158;DHT22;40065;49.894;10.358;2023-03-08T10:57:28;3.70;99.90
54158;DHT22;40065;49.894;10.358;2023-03-08T11:02:30;3.60;99.90
54158;DHT22;40065;49.894;10.358;2023-03-08T11:07:32;3.80;99.90
54158;DHT22;40065;49.894;10.358;2023-03-08T11:12:34;3.90;99.90
54158;DHT22;40065;49.894;10.358;2023-03-08T11:17:37;3.50;99.90
54158;DHT22;40065;49.894;10.358;2023-03-08T11:23:04;3.60;99.90
54158;DHT22;40065;49.894;10.358;2023-03-08T11:38:30;4.40;99.90
54158;DHT22;40065;49.894;10.358;2023-03-08T11:54:31;4.50;99.90
54158;DHT22;40065;49.894;10.358;2023-03-08T11:59:46;4.40;99.90
54158;DHT22;40065;49.894;10.358;2023-03-08T12:05:04;4.30;99.90
54158;DHT22;40065;49.894;10.358;2023-03-08T12:10:25;4.80;99.90
54158;DHT22;40065;49.894;10.358;2023-03-08T12:16:01;5.00;99.90
54158;DHT22;40065;49.894;10.358;2023-03-08T12:21:19;4.70;99.90
54158;DHT22;40065;49.894;10.358;2023-03-08T12:26:27;4.80;99.90
54158;DHT22;40065;49.894;10.358;2023-03-08T12:31:38;5.30;99.90
54158;DHT22;40065;49.894;10.358;2023-03-08T12:36:42;5.50;99.90
54158;DHT22;40065;49.894;10.358;2023-03-08T12:41:56;5.40;99.90
54158;DHT22;40065;49.894;10.358;2023-03-08T12:47:01;5.40;99.90
54158;DHT22;40065;49.894;10.358;2023-03-08T12:57:21;5.30;99.90
54158;DHT22;40065;49.894;10.358;2023-03-08T13:08:35;5.80;99.90
54158;DHT22;40065;49.894;10.358;2023-03-08T13:18:31;5.80;99.90
54158;DHT22;40065;49.894;10.358;2023-03-08T13:23:39;6.00;99.90
54158;DHT22;40065;49.894;10.358;2023-03-08T13:28:43;5.90;99.90
54158;DHT22;40065;49.894;10.358;2023-03-08T13:33:51;5.90;99.90
54158;DHT22;40065;49.894;10.358;2023-03-08T13:38:57;5.90;99.90
54158;DHT22;40065;49.894;10.358;2023-03-08T13:44:04;6.00;99.90
54158;DHT22;40065;49.894;10.358;2023-03-08T13:49:12;6.00;99.90
54158;DHT22;40065;49.894;10.358;2023-03-08T13:54:30;6.00;99.90
54158;DHT22;40065;49.894;10.358;2023-03-08T13:59:32;6.00;99.90
54158;DHT22;40065;49.894;10.358;2023-03-08T14:04:41;6.20;99.90
54158;DHT22;40065;49.894;10.358;2023-03-08T14:09:43;6.20;99.90
54158;DHT22;40065;49.894;10.358;2023-03-08T14:14:51;6.40;99.90
54158;DHT22;40065;49.894;10.358;2023-03-08T14:20:00;6.60;99.90
54158;DHT22;40065;49.894;10.358;2023-03-08T14:25:02;6.60;99.90
54158;DHT22;40065;49.894;10.358;2023-03-08T14:35:25;6.70;99.90
54158;DHT22;40065;49.894;10.358;2023-03-08T14:40:30;6.80;99.90
54158;DHT22;40065;49.894;10.358;2023-03-08T14:45:36;6.80;99.90
54158;DHT22;40065;49.894;10.358;2023-03-08T14:50:50;6.90;99.90
54158;DHT22;40065;49.894;10.358;2023-03-08T14:55:52;6.90;99.90
54158;DHT22;40065;49.894;10.358;2023-03-08T15:00:57;7.10;99.90
54158;DHT22;40065;49.894;10.358;2023-03-08T15:06:06;7.20;99.90
54158;DHT22;40065;49.894;10.358;2023-03-08T15:11:11;7.40;99.90
54158;DHT22;40065;49.894;10.358;2023-03-08T15:16:14;7.50;99.90
54158;DHT22;40065;49.894;10.358;2023-03-08T15:21:20;7.60;99.90
54158;DHT22;40065;49.894;10.358;2023-03-08T15:26:26;7.60;99.90
54158;DHT22;40065;49.894;10.358;2023-03-08T15:31:29;7.60;99.90
54158;DHT22;40065;49.894;10.358;2023-03-08T15:36:31;7.60;99.90
54158;DHT22;40065;49.894;10.358;2023-03-08T15:41:36;7.80;99.90
54158;DHT22;40065;49.894;10.358;2023-03-08T15:46:38;7.80;99.90
54158;DHT22;40065;49.894;10.358;2023-03-08T15:51:41;7.80;99.90
54158;DHT22;40065;49.894;10.358;2023-03-08T15:56:43;7.90;99.90
54158;DHT22;40065;49.894;10.358;2023-03-08T16:01:45;8.00;99.90
54158;DHT22;40065;49.894;10.358;2023-03-08T16:06:47;8.10;99.90
54158;DHT22;40065;49.894;10.358;2023-03-08T16:11:48;8.20;99.90
54158;DHT22;40065;49.894;10.358;2023-03-08T16:16:50;8.30;99.90
54158;DHT22;40065;49.894;10.358;2023-03-08T16:21:52;8.30;99.90
54158;DHT22;40065;49.894;10.358;2023-03-08T16:26:54;8.30;99.90
54158;DHT22;40065;49.894;10.358;2023-03-08T16:31:56;8.30;99.90
54158;DHT22;40065;49.894;10.358;2023-03-08T16:37:01;8.40;99.90
54158;DHT22;40065;49.894;10.358;2023-03-08T16:42:04;8.40;99.90
54158;DHT22;40065;49.894;10.358;2023-03-08T16:47:07;8.50;99.90
54158;DHT22;40065;49.894;10.358;2023-03-08T16:52:09;8.40;99.90
54158;DHT22;40065;49.894;10.358;2023-03-08T16:57:12;8.60;99.90
54158;DHT22;40065;49.894;10.358;2023-03-08T17:02:21;8.60;99.90
54158;DHT22;40065;49.894;10.358;2023-03-08T17:07:23;8.70;99.90
54158;DHT22;40065;49.894;10.358;2023-03-08T17:12:24;8.60;99.90
54158;DHT22;40065;49.894;10.358;2023-03-08T17:17:26;8.70;99.90
54158;DHT22;40065;49.894;10.358;2023-03-08T17:22:28;8.80;99.90
54158;DHT22;40065;49.894;10.358;2023-03-08T17:27:30;8.90;99.90
54158;DHT22;40065;49.894;10.358;2023-03-08T17:32:31;9.00;99.90
54158;DHT22;40065;49.894;10.358;2023-03-08T17:37:33;8.90;99.90
54158;DHT22;40065;49.894;10.358;2023-03-08T17:42:42;9.00;99.90
54158;DHT22;40065;49.894;10.358;2023-03-08T17:47:44;9.00;99.90
54158;DHT22;40065;49.894;10.358;2023-03-08T17:52:46;9.10;99.90
54158;DHT22;40065;49.894;10.358;2023-03-08T17:57:47;9.10;99.90
54158;DHT22;40065;49.894;10.358;2023-03-08T18:02:49;9.30;99.90
54158;DHT22;40065;49.894;10.358;2023-03-08T18:07:51;9.30;99.90
54158;DHT22;40065;49.894;10.358;2023-03-08T18:12:53;9.20;99.90
54158;DHT22;40065;49.894;10.358;2023-03-08T18:17:55;9.30;99.90
54158;DHT22;40065;49.894;10.358;2023-03-08T18:22:56;9.30;99.90
54158;DHT22;40065;49.894;10.358;2023-03-08T18:27:58;9.40;99.90
54158;DHT22;40065;49.894;10.358;2023-03-08T18:33:00;9.40;99.90
54158;DHT22;40065;49.894;10.358;2023-03-08T18:38:02;9.40;99.90
54158;DHT22;40065;49.894;10.358;2023-03-08T18:43:04;9.50;99.90
54158;DHT22;40065;49.894;10.358;2023-03-08T18:48:06;9.50;99.90
54158;DHT22;40065;49.894;10.358;2023-03-08T18:53:08;9.50;99.90
54158;DHT22;40065;49.894;10.358;2023-03-08T18:58:09;9.40;99.90
54158;DHT22;40065;49.894;10.358;2023-03-08T19:03:11;9.50;99.90
54158;DHT22;40065;49.894;10.358;2023-03-08T19:08:13;9.50;99.90
54158;DHT22;40065;49.894;10.358;2023-03-08T19:13:15;9.40;99.90
54158;DHT22;40065;49.894;10.358;2023-03-08T19:18:17;9.50;99.90
54158;DHT22;40065;49.894;10.358;2023-03-08T19:23:19;9.40;99.90
54158;DHT22;40065;49.894;10.358;2023-03-08T19:28:21;9.40;99.90
54158;DHT22;40065;49.894;10.358;2023-03-08T19:33:23;9.40;99.90
54158;DHT22;40065;49.894;10.358;2023-03-08T19:38:32;9.40;99.90
54158;DHT22;40065;49.894;10.358;2023-03-08T19:43:34;9.30;99.90
54158;DHT22;40065;49.894;10.358;2023-03-08T19:48:36;9.30;99.90
54158;DHT22;40065;49.894;10.358;2023-03-08T19:53:39;9.30;99.90
54158;DHT22;40065;49.894;10.358;2023-03-08T19:58:41;9.30;99.90
54158;DHT22;40065;49.894;10.358;2023-03-08T20:03:43;9.30;99.90
54158;DHT22;40065;49.894;10.358;2023-03-08T20:08:48;9.00;99.90
54158;DHT22;40065;49.894;10.358;2023-03-08T20:13:50;9.00;99.90
54158;DHT22;40065;49.894;10.358;2023-03-08T20:18:52;8.70;99.90
54158;DHT22;40065;49.894;10.358;2023-03-08T20:23:57;8.40;99.90
54158;DHT22;40065;49.894;10.358;2023-03-08T20:29:00;8.20;99.90
54158;DHT22;40065;49.894;10.358;2023-03-08T20:34:02;8.20;99.90
54158;DHT22;40065;49.894;10.358;2023-03-08T20:39:04;8.30;99.90
54158;DHT22;40065;49.894;10.358;2023-03-08T20:44:06;8.20;99.90
54158;DHT22;40065;49.894;10.358;2023-03-08T20:49:08;8.30;99.90
54158;DHT22;40065;49.894;10.358;2023-03-08T20:54:12;8.20;99.90
54158;DHT22;40065;49.894;10.358;2023-03-08T20:59:14;8.40;99.90
54158;DHT22;40065;49.894;10.358;2023-03-08T21:04:17;8.60;99.90
54158;DHT22;40065;49.894;10.358;2023-03-08T21:09:19;8.80;99.90
54158;DHT22;40065;49.894;10.358;2023-03-08T21:14:21;8.90;99.90
54158;DHT22;40065;49.894;10.358;2023-03-08T21:19:24;8.90;99.90
54158;DHT22;40065;49.894;10.358;2023-03-08T21:24:26;8.80;99.90
54158;DHT22;40065;49.894;10.358;2023-03-08T21:29:27;8.90;99.90
54158;DHT22;40065;49.894;10.358;2023-03-08T21:34:30;8.90;99.90
54158;DHT22;40065;49.894;10.358;2023-03-08T21:39:32;8.90;99.90
54158;DHT22;40065;49.894;10.358;2023-03-08T21:44:34;8.80;99.90
54158;DHT22;40065;49.894;10.358;2023-03-08T21:49:36;8.80;99.90
54158;DHT22;40065;49.894;10.358;2023-03-08T21:54:37;8.70;99.90
54158;DHT22;40065;49.894;10.358;2023-03-08T21:59:39;8.80;99.90
54158;DHT22;40065;49.894;10.358;2023-03-08T22:04:41;8.80;99.90
54158;DHT22;40065;49.894;10.358;2023-03-08T22:09:43;8.70;99.90
54158;DHT22;40065;49.894;10.358;2023-03-08T22:14:44;9.00;99.90
54158;DHT22;40065;49.894;10.358;2023-03-08T22:19:46;8.90;99.90
54158;DHT22;40065;49.894;10.358;2023-03-08T22:24:48;8.90;99.90
54158;DHT22;40065;49.894;10.358;2023-03-08T22:29:50;8.90;99.90
54158;DHT22;40065;49.894;10.358;2023-03-08T22:34:52;8.90;99.90
54158;DHT22;40065;49.894;10.358;2023-03-08T22:39:53;8.90;99.90
54158;DHT22;40065;49.894;10.358;2023-03-08T22:44:55;8.80;99.90
54158;DHT22;40065;49.894;10.358;2023-03-08T22:49:57;8.80;99.90
54158;DHT22;40065;49.894;10.358;2023-03-08T22:54:59;8.70;99.90
54158;DHT22;40065;49.894;10.358;2023-03-08T23:00:00;8.60;99.90
54158;DHT22;40065;49.894;10.358;2023-03-08T23:05:03;8.70;99.90
54158;DHT22;40065;49.894;10.358;2023-03-08T23:10:07;8.60;99.90
54158;DHT22;40065;49.894;10.358;2023-03-08T23:15:09;8.70;99.90
54158;DHT22;40065;49.894;10.358;2023-03-08T23:20:11;8.70;99.90
54158;DHT22;40065;49.894;10.358;2023-03-08T23:25:14;8.60;99.90
54158;DHT22;40065;49.894;10.358;2023-03-08T23:30:16;8.70;99.90
54158;DHT22;40065;49.894;10.358;2023-03-08T23:35:19;8.60;99.90
54158;DHT22;40065;49.894;10.358;2023-03-08T23:40:20;8.60;99.90
54158;DHT22;40065;49.894;10.358;2023-03-08T23:45:22;8.60;99.90
54158;DHT22;40065;49.894;10.358;2023-03-08T23:50:24;8.70;99.90
54158;DHT22;40065;49.894;10.358;2023-03-08T23:55:26;8.80;99.90
